createdAt,value
2018-10-17T00:00:47.765Z,15.37
2018-10-17T00:03:16.213Z,14.20
2018-10-17T00:05:44.633Z,13.00
2018-10-17T00:08:13.053Z,13.10
2018-10-17T00:10:41.504Z,16.90
2018-10-17T00:13:10.039Z,16.90
2018-10-17T00:15:38.392Z,13.50
2018-10-17T00:18:06.854Z,18.23
2018-10-17T00:20:35.290Z,15.90
2018-10-17T00:23:03.711Z,15.23
2018-10-17T00:25:32.094Z,14.27
2018-10-17T00:28:00.515Z,14.87
2018-10-17T00:30:28.948Z,13.60
2018-10-17T00:32:57.435Z,12.10
2018-10-17T00:35:25.862Z,12.93
2018-10-17T00:37:54.258Z,10.93
2018-10-17T00:40:24.693Z,15.27
2018-10-17T00:42:54.028Z,13.33
2018-10-17T00:45:22.418Z,16.00
2018-10-17T00:47:50.845Z,12.90
2018-10-17T00:50:19.253Z,15.40
2018-10-17T00:52:47.686Z,20.13
2018-10-17T00:55:16.200Z,14.60
2018-10-17T00:57:44.556Z,17.00
2018-10-17T01:00:12.999Z,18.80
2018-10-17T01:02:41.396Z,18.20
2018-10-17T01:05:09.930Z,17.00
2018-10-17T01:07:38.281Z,13.80
2018-10-17T01:10:06.716Z,16.97
2018-10-17T01:12:35.093Z,12.80
2018-10-17T01:15:03.646Z,14.03
2018-10-17T01:17:32.066Z,17.30
2018-10-17T01:20:00.559Z,11.53
2018-10-17T01:22:28.979Z,10.97
2018-10-17T01:24:57.458Z,13.37
2018-10-17T01:27:25.904Z,11.43
2018-10-17T01:29:54.288Z,13.77
2018-10-17T01:32:22.680Z,12.13
2018-10-17T01:34:51.096Z,14.53
2018-10-17T01:37:19.492Z,13.53
2018-10-17T01:39:47.895Z,13.80
2018-10-17T01:42:16.338Z,12.43
2018-10-17T01:44:44.748Z,17.10
2018-10-17T01:47:13.245Z,11.20
2018-10-17T01:49:41.577Z,13.60
2018-10-17T01:52:10.024Z,12.03
2018-10-17T01:54:38.487Z,14.47
2018-10-17T01:57:07.165Z,10.30
2018-10-17T01:59:35.605Z,14.70
2018-10-17T02:02:04.172Z,14.20
2018-10-17T02:04:32.600Z,16.00
2018-10-17T02:07:01.076Z,12.07
2018-10-17T02:09:29.472Z,14.60
2018-10-17T02:11:57.861Z,11.77
2018-10-17T02:14:26.416Z,11.40
2018-10-17T02:16:54.868Z,12.67
2018-10-17T02:19:23.219Z,13.30
2018-10-17T02:21:51.575Z,9.33
2018-10-17T02:24:19.973Z,10.97
2018-10-17T02:26:48.364Z,10.27
2018-10-17T02:29:16.882Z,14.13
2018-10-17T02:31:45.191Z,11.10
2018-10-17T02:34:13.622Z,13.53
2018-10-17T02:36:42.010Z,11.07
2018-10-17T02:39:11.260Z,13.47
2018-10-17T02:41:39.764Z,12.30
2018-10-17T02:44:08.535Z,12.93
2018-10-17T02:46:37.028Z,11.80
2018-10-17T02:49:05.707Z,11.03
2018-10-17T02:51:34.083Z,11.60
2018-10-17T02:54:02.529Z,10.90
2018-10-17T02:56:30.987Z,11.00
2018-10-17T02:58:59.481Z,11.63
2018-10-17T03:01:28.128Z,9.70
2018-10-17T03:03:56.571Z,10.93
2018-10-17T03:06:24.957Z,12.00
2018-10-17T03:08:53.320Z,9.93
2018-10-17T03:11:21.719Z,10.40
2018-10-17T03:13:50.238Z,11.63
2018-10-17T03:16:18.649Z,12.70
2018-10-17T03:18:47.036Z,12.20
2018-10-17T03:21:15.458Z,16.00
2018-10-17T03:23:43.841Z,10.67
2018-10-17T03:26:12.293Z,12.80
2018-10-17T03:28:40.718Z,10.50
2018-10-17T03:31:09.271Z,12.13
2018-10-17T03:33:37.533Z,8.83
2018-10-17T03:36:05.912Z,19.27
2018-10-17T03:38:34.342Z,13.23
2018-10-17T03:41:02.795Z,8.90
2018-10-17T03:43:31.184Z,10.30
2018-10-17T03:45:59.588Z,9.20
2018-10-17T03:48:28.013Z,12.20
2018-10-17T03:50:56.449Z,15.37
2018-10-17T03:53:24.836Z,11.53
2018-10-17T03:55:53.293Z,10.47
2018-10-17T03:58:21.669Z,11.07
2018-10-17T04:00:50.224Z,11.20
2018-10-17T04:03:18.701Z,13.70
2018-10-17T04:05:47.131Z,18.47
2018-10-17T04:08:15.590Z,10.60
2018-10-17T04:10:44.045Z,10.83
2018-10-17T04:13:12.554Z,12.43
2018-10-17T04:15:40.892Z,12.07
2018-10-17T04:18:09.379Z,13.70
2018-10-17T04:20:37.842Z,12.80
2018-10-17T04:23:06.305Z,11.63
2018-10-17T04:25:34.706Z,15.27
2018-10-17T04:28:03.141Z,16.13
2018-10-17T04:30:31.584Z,12.03
2018-10-17T04:32:59.981Z,11.03
2018-10-17T04:35:28.385Z,11.57
2018-10-17T04:37:56.957Z,12.00
2018-10-17T04:40:25.376Z,10.90
2018-10-17T04:42:53.842Z,9.70
2018-10-17T04:45:22.199Z,12.37
2018-10-17T04:47:50.638Z,12.30
2018-10-17T04:50:19.057Z,14.53
2018-10-17T04:52:47.445Z,10.43
2018-10-17T04:55:15.920Z,10.30
2018-10-17T04:57:44.307Z,10.20
2018-10-17T05:00:13.407Z,14.93
2018-10-17T05:02:43.170Z,10.37
2018-10-17T05:05:12.242Z,11.60
2018-10-17T05:07:40.633Z,16.33
2018-10-17T05:10:09.081Z,9.73
2018-10-17T05:12:37.485Z,12.30
2018-10-17T05:15:06.333Z,16.13
2018-10-17T05:17:34.653Z,11.33
2018-10-17T05:20:03.116Z,10.37
2018-10-17T05:22:31.504Z,8.83
2018-10-17T05:24:59.962Z,11.53
2018-10-17T05:27:28.396Z,7.47
2018-10-17T05:29:56.903Z,8.63
2018-10-17T05:32:25.369Z,18.77
2018-10-17T05:34:53.768Z,10.73
2018-10-17T05:37:22.239Z,15.63
2018-10-17T05:39:50.651Z,9.70
2018-10-17T05:42:19.109Z,11.20
2018-10-17T05:44:47.528Z,10.70
2018-10-17T05:47:16.009Z,10.50
2018-10-17T05:49:44.342Z,9.67
2018-10-17T05:52:12.782Z,13.90
2018-10-17T05:54:41.225Z,11.50
2018-10-17T05:57:09.622Z,10.77
2018-10-17T05:59:38.060Z,17.37
2018-10-17T06:02:12.631Z,18.43
2018-10-17T06:04:40.956Z,19.30
2018-10-17T06:07:09.416Z,12.67
2018-10-17T06:09:37.764Z,11.53
2018-10-17T06:12:06.193Z,10.23
2018-10-17T06:14:34.625Z,9.93
2018-10-17T06:17:03.120Z,12.70
2018-10-17T06:19:31.498Z,13.53
2018-10-17T06:21:59.987Z,11.27
2018-10-17T06:24:28.396Z,20.33
2018-10-17T06:26:56.848Z,13.40
2018-10-17T06:29:25.257Z,13.90
2018-10-17T06:31:53.724Z,10.00
2018-10-17T06:34:22.305Z,11.80
2018-10-17T06:36:50.649Z,11.30
2018-10-17T06:39:19.072Z,16.40
2018-10-17T06:41:47.511Z,12.80
2018-10-17T06:44:15.913Z,16.30
2018-10-17T06:46:44.322Z,9.40
2018-10-17T06:49:12.854Z,9.93
2018-10-17T06:51:41.249Z,9.70
2018-10-17T06:54:09.678Z,8.73
2018-10-17T06:56:38.110Z,11.40
2018-10-17T06:59:06.763Z,16.03
2018-10-17T07:01:35.257Z,9.70
2018-10-17T07:04:03.696Z,12.40
2018-10-17T07:06:32.184Z,13.43
2018-10-17T07:09:00.641Z,9.50
2018-10-17T07:11:29.124Z,10.57
2018-10-17T07:13:57.610Z,10.40
2018-10-17T07:16:26.267Z,9.63
2018-10-17T07:18:54.718Z,14.70
2018-10-17T07:21:23.207Z,12.50
2018-10-17T07:23:51.625Z,12.37
2018-10-17T07:26:20.082Z,14.93
2018-10-17T07:28:48.608Z,14.43
2018-10-17T07:31:17.097Z,10.37
2018-10-17T07:33:45.469Z,13.40
2018-10-17T07:36:13.987Z,16.33
2018-10-17T07:38:42.333Z,21.07
2018-10-17T07:41:10.833Z,22.40
2018-10-17T07:43:39.282Z,22.37
2018-10-17T07:46:07.735Z,21.33
2018-10-17T07:48:36.190Z,16.47
2018-10-17T07:51:04.993Z,19.93
2018-10-17T07:53:33.619Z,21.97
2018-10-17T07:56:02.085Z,23.97
2018-10-17T07:58:30.497Z,17.63
2018-10-17T08:00:58.942Z,19.37
2018-10-17T08:03:27.437Z,20.70
2018-10-17T08:05:55.931Z,20.43
2018-10-17T08:08:24.655Z,32.13
2018-10-17T08:10:53.092Z,19.00
2018-10-17T08:13:21.510Z,22.33
2018-10-17T08:15:50.005Z,21.73
2018-10-17T08:18:18.536Z,18.90
2018-10-17T08:20:46.931Z,19.70
2018-10-17T08:23:15.333Z,21.70
2018-10-17T08:25:43.793Z,20.30
2018-10-17T08:28:12.197Z,21.70
2018-10-17T08:30:40.639Z,20.27
2018-10-17T08:33:09.085Z,22.20
2018-10-17T08:35:37.631Z,23.63
2018-10-17T08:38:06.163Z,44.37
2018-10-17T08:40:34.549Z,28.70
2018-10-17T08:43:02.936Z,27.20
2018-10-17T08:45:31.344Z,27.30
2018-10-17T08:47:59.746Z,26.03
2018-10-17T08:50:28.311Z,30.23
2018-10-17T08:52:56.767Z,21.07
2018-10-17T08:55:25.206Z,20.83
2018-10-17T08:57:53.745Z,24.80
2018-10-17T09:00:22.143Z,18.43
2018-10-17T09:02:50.577Z,26.50
2018-10-17T09:05:19.004Z,21.53
2018-10-17T09:07:47.553Z,31.57
2018-10-17T09:10:15.948Z,36.80
2018-10-17T09:12:44.385Z,40.20
2018-10-17T09:15:12.816Z,21.03
2018-10-17T09:17:41.297Z,20.17
2018-10-17T09:20:10.373Z,17.23
2018-10-17T09:22:38.693Z,18.30
2018-10-17T09:25:07.400Z,18.73
2018-10-17T09:27:36.009Z,18.70
2018-10-17T09:30:04.953Z,18.67
2018-10-17T09:32:33.976Z,17.97
2018-10-17T09:35:02.444Z,20.60
2018-10-17T09:37:30.872Z,19.10
2018-10-17T09:39:59.306Z,22.90
2018-10-17T09:42:27.736Z,17.90
2018-10-17T09:44:56.165Z,19.10
2018-10-17T09:47:24.628Z,17.00
2018-10-17T09:49:53.121Z,21.30
2018-10-17T09:52:21.642Z,19.97
2018-10-17T09:54:50.052Z,24.20
2018-10-17T09:57:18.534Z,16.30
2018-10-17T09:59:47.029Z,16.23
2018-10-17T10:02:15.451Z,17.00
2018-10-17T10:04:43.905Z,18.80
2018-10-17T10:07:12.344Z,21.47
2018-10-17T10:09:40.728Z,21.20
2018-10-17T10:12:09.232Z,17.17
2018-10-17T10:14:37.567Z,16.60
2018-10-17T10:17:06.188Z,21.70
2018-10-17T10:19:34.521Z,23.70
2018-10-17T10:22:03.020Z,22.00
2018-10-17T10:24:31.453Z,19.70
2018-10-17T10:27:00.929Z,20.97
2018-10-17T10:29:29.387Z,18.67
2018-10-17T10:31:57.837Z,14.53
2018-10-17T10:34:26.274Z,18.17
2018-10-17T10:36:54.745Z,15.87
2018-10-17T10:39:23.191Z,15.93
2018-10-17T10:41:51.723Z,17.00
2018-10-17T10:44:20.167Z,18.33
2018-10-17T10:46:48.560Z,13.47
2018-10-17T10:49:17.128Z,14.97
2018-10-17T10:51:45.551Z,16.60
2018-10-17T10:54:14.710Z,17.03
2018-10-17T10:56:43.260Z,16.30
2018-10-17T10:59:11.724Z,14.67
2018-10-17T11:01:40.173Z,15.20
2018-10-17T11:04:08.618Z,15.80
2018-10-17T11:06:37.034Z,15.70
2018-10-17T11:09:07.514Z,15.33
2018-10-17T11:11:36.142Z,16.67
2018-10-17T11:14:05.228Z,19.37
2018-10-17T11:16:33.614Z,17.37
2018-10-17T11:19:02.333Z,15.03
2018-10-17T11:21:30.916Z,18.00
2018-10-17T11:24:00.245Z,17.87
2018-10-17T11:26:28.786Z,16.63
2018-10-17T11:28:57.589Z,18.60
2018-10-17T11:31:26.156Z,18.80
2018-10-17T11:33:54.662Z,21.40
2018-10-17T11:36:23.360Z,18.73
2018-10-17T11:38:51.758Z,19.03
2018-10-17T11:41:20.269Z,19.43
2018-10-17T11:43:48.578Z,16.40
2018-10-17T11:46:17.040Z,30.03
2018-10-17T11:48:46.130Z,21.97
2018-10-17T11:51:14.612Z,21.90
2018-10-17T11:53:43.021Z,25.90
2018-10-17T11:56:11.490Z,21.43
2018-10-17T11:58:41.400Z,27.00
2018-10-17T12:01:09.886Z,24.53
2018-10-17T12:03:38.435Z,20.87
2018-10-17T12:06:07.175Z,27.93
2018-10-17T12:08:35.473Z,27.53
2018-10-17T12:11:03.914Z,23.87
2018-10-17T12:13:32.348Z,20.00
2018-10-17T12:16:00.790Z,26.93
2018-10-17T12:18:29.249Z,26.70
2018-10-17T12:20:57.708Z,30.90
2018-10-17T12:23:26.078Z,26.20
2018-10-17T12:25:54.513Z,27.20
2018-10-17T12:28:22.970Z,26.00
2018-10-17T12:30:51.389Z,28.77
2018-10-17T12:33:19.809Z,22.77
2018-10-17T12:35:48.287Z,29.40
2018-10-17T12:38:16.784Z,22.73
2018-10-17T12:40:45.350Z,30.60
2018-10-17T12:43:13.606Z,28.03
2018-10-17T12:45:42.094Z,25.03
2018-10-17T12:48:10.534Z,26.83
2018-10-17T12:50:38.985Z,22.10
2018-10-17T12:53:07.670Z,28.50
2018-10-17T12:55:35.869Z,25.80
2018-10-17T12:58:04.423Z,27.73
2018-10-17T13:00:32.848Z,22.63
2018-10-17T13:03:01.280Z,27.90
2018-10-17T13:05:29.736Z,26.93
2018-10-17T13:07:58.161Z,24.97
2018-10-17T13:10:26.736Z,18.43
2018-10-17T13:12:55.195Z,25.87
2018-10-17T13:15:23.557Z,24.00
2018-10-17T13:17:52.016Z,25.10
2018-10-17T13:20:20.492Z,24.90
2018-10-17T13:22:48.922Z,23.50
2018-10-17T13:25:17.496Z,24.17
2018-10-17T13:27:45.948Z,17.23
2018-10-17T13:30:14.392Z,39.40
2018-10-17T13:32:42.832Z,29.80
2018-10-17T13:35:11.358Z,24.47
2018-10-17T13:37:39.716Z,20.93
2018-10-17T13:40:08.215Z,19.53
2018-10-17T13:42:36.798Z,20.13
2018-10-17T13:45:05.825Z,17.80
2018-10-17T13:47:34.270Z,25.93
2018-10-17T13:50:02.731Z,20.73
2018-10-17T13:52:31.130Z,21.30
2018-10-17T13:55:00.055Z,24.27
2018-10-17T13:57:28.428Z,21.93
2018-10-17T13:59:57.346Z,22.30
2018-10-17T14:02:26.459Z,25.23
2018-10-17T14:04:55.231Z,23.50
2018-10-17T14:07:23.668Z,21.57
2018-10-17T14:09:52.823Z,20.60
2018-10-17T14:12:22.335Z,19.23
2018-10-17T14:14:50.881Z,21.53
2018-10-17T14:17:19.375Z,24.57
2018-10-17T14:19:47.772Z,24.13
2018-10-17T14:22:16.255Z,19.13
2018-10-17T14:24:44.803Z,21.00
2018-10-17T14:27:14.017Z,22.03
2018-10-17T14:29:42.489Z,16.07
2018-10-17T14:32:10.881Z,19.67
2018-10-17T14:34:39.284Z,21.73
2018-10-17T14:37:07.871Z,23.63
2018-10-17T14:39:36.271Z,20.87
2018-10-17T14:42:04.868Z,25.77
2018-10-17T14:44:33.303Z,21.03
2018-10-17T14:47:02.178Z,22.70
2018-10-17T14:49:30.595Z,18.00
2018-10-17T14:51:58.966Z,18.20
2018-10-17T14:54:27.385Z,21.40
2018-10-17T14:56:55.937Z,19.73
2018-10-17T14:59:24.365Z,22.83
2018-10-17T15:01:53.549Z,25.23
2018-10-17T15:04:22.521Z,23.07
2018-10-17T15:06:52.694Z,27.23
2018-10-17T15:09:21.319Z,27.73
2018-10-17T15:11:49.617Z,26.07
2018-10-17T15:14:18.580Z,28.73
2018-10-17T15:16:47.071Z,24.07
2018-10-17T15:19:15.588Z,29.43
2018-10-17T15:21:44.039Z,24.63
2018-10-17T15:24:12.591Z,21.40
2018-10-17T15:26:41.011Z,20.50
2018-10-17T15:29:09.559Z,23.67
2018-10-17T15:31:38.048Z,27.30
2018-10-17T15:34:06.464Z,22.40
2018-10-17T15:36:34.992Z,22.57
2018-10-17T15:39:05.122Z,20.03
2018-10-17T15:41:34.065Z,34.77
2018-10-17T15:44:02.485Z,23.43
2018-10-17T15:46:30.924Z,24.67
2018-10-17T15:48:59.376Z,28.00
2018-10-17T15:51:27.881Z,23.10
2018-10-17T15:53:56.364Z,31.53
2018-10-17T15:56:24.952Z,18.40
2018-10-17T15:58:53.512Z,23.83
2018-10-17T16:01:21.909Z,26.13
2018-10-17T16:03:50.348Z,26.33
2018-10-17T16:06:18.977Z,22.50
2018-10-17T16:08:47.353Z,18.13
2018-10-17T16:11:16.834Z,25.03
2018-10-17T16:13:45.298Z,20.60
2018-10-17T16:16:13.767Z,15.80
2018-10-17T16:18:42.232Z,23.33
2018-10-17T16:21:10.683Z,22.40
2018-10-17T16:23:39.153Z,25.20
2018-10-17T16:26:07.750Z,20.57
2018-10-17T16:28:36.105Z,25.13
2018-10-17T16:31:04.599Z,18.30
2018-10-17T16:33:33.037Z,17.03
2018-10-17T16:36:01.543Z,23.60
2018-10-17T16:38:30.032Z,18.40
2018-10-17T16:40:58.563Z,17.90
2018-10-17T16:43:26.997Z,25.40
2018-10-17T16:45:55.455Z,31.07
2018-10-17T16:48:23.860Z,24.63
2018-10-17T16:50:52.436Z,19.50
2018-10-17T16:53:20.873Z,22.67
2018-10-17T16:55:49.331Z,20.30
2018-10-17T16:58:17.842Z,25.43
2018-10-17T17:00:46.286Z,21.50
2018-10-17T17:03:14.789Z,28.03
2018-10-17T17:05:43.207Z,25.77
2018-10-17T17:08:11.721Z,27.60
2018-10-17T17:10:40.273Z,20.87
2018-10-17T17:13:08.811Z,26.33
2018-10-17T17:15:37.854Z,24.60
2018-10-17T17:18:06.304Z,21.57
2018-10-17T17:20:34.760Z,30.97
2018-10-17T17:23:03.242Z,29.53
2018-10-17T17:25:31.659Z,34.03
2018-10-17T17:28:00.105Z,23.67
2018-10-17T17:30:28.524Z,23.90
2018-10-17T17:32:57.041Z,37.00
2018-10-17T17:35:25.473Z,24.40
2018-10-17T17:37:53.925Z,24.03
2018-10-17T17:40:22.681Z,28.13
2018-10-17T17:42:51.162Z,25.47
2018-10-17T17:45:19.590Z,27.23
2018-10-17T17:47:48.045Z,24.13
2018-10-17T17:50:16.507Z,23.77
2018-10-17T17:52:45.037Z,27.97
2018-10-17T17:55:13.576Z,27.00
2018-10-17T17:57:42.046Z,23.60
2018-10-17T18:00:11.402Z,28.47
2018-10-17T18:02:39.865Z,33.83
2018-10-17T18:05:09.275Z,29.07
2018-10-17T18:07:37.885Z,36.70
2018-10-17T18:10:07.435Z,32.43
2018-10-17T18:12:35.988Z,32.53
2018-10-17T18:15:04.506Z,31.43
2018-10-17T18:17:32.952Z,28.83
2018-10-17T18:20:01.504Z,36.70
2018-10-17T18:22:30.092Z,32.47
2018-10-17T18:24:58.515Z,27.17
2018-10-17T18:27:26.981Z,34.43
2018-10-17T18:29:55.496Z,33.93
2018-10-17T18:32:24.027Z,25.87
2018-10-17T18:34:52.473Z,35.73
2018-10-17T18:37:20.919Z,32.07
2018-10-17T18:39:49.371Z,31.30
2018-10-17T18:42:17.802Z,32.90
2018-10-17T18:44:46.193Z,35.93
2018-10-17T18:47:14.680Z,34.37
2018-10-17T18:49:43.157Z,37.50
2018-10-17T18:52:11.572Z,38.03
2018-10-17T18:54:40.020Z,51.57
2018-10-17T18:57:08.617Z,43.80
2018-10-17T18:59:37.166Z,45.63
2018-10-17T19:02:05.792Z,46.37
2018-10-17T19:04:34.307Z,44.83
2018-10-17T19:07:02.726Z,47.43
2018-10-17T19:09:31.214Z,54.87
2018-10-17T19:11:59.709Z,52.10
2018-10-17T19:14:28.220Z,52.70
2018-10-17T19:16:56.627Z,52.07
2018-10-17T19:19:25.195Z,60.03
2018-10-17T19:21:53.672Z,53.53
2018-10-17T19:24:22.153Z,60.80
2018-10-17T19:26:50.584Z,56.33
2018-10-17T19:29:19.030Z,54.83
2018-10-17T19:31:47.525Z,60.37
2018-10-17T19:34:15.952Z,57.23
2018-10-17T19:36:44.376Z,65.17
2018-10-17T19:39:13.741Z,62.70
2018-10-17T19:41:42.594Z,60.43
2018-10-17T19:44:11.121Z,55.20
2018-10-17T19:46:40.454Z,70.30
2018-10-17T19:49:09.113Z,69.53
2018-10-17T19:51:37.569Z,71.33
2018-10-17T19:54:06.486Z,77.80
2018-10-17T19:56:35.058Z,69.83
2018-10-17T19:59:03.521Z,76.23
2018-10-17T20:01:32.058Z,65.77
2018-10-17T20:04:00.860Z,61.13
2018-10-17T20:06:30.465Z,69.53
2018-10-17T20:08:58.928Z,67.30
2018-10-17T20:11:27.452Z,73.97
2018-10-17T20:13:55.888Z,82.00
2018-10-17T20:16:24.298Z,88.77
2018-10-17T20:18:52.772Z,82.63
2018-10-17T20:21:21.187Z,80.53
2018-10-17T20:23:49.665Z,73.33
2018-10-17T20:26:18.236Z,76.43
2018-10-17T20:28:46.684Z,78.93
2018-10-17T20:31:15.106Z,77.33
2018-10-17T20:33:43.555Z,78.23
2018-10-17T20:36:12.031Z,80.53
2018-10-17T20:38:40.503Z,84.40
2018-10-17T20:41:08.941Z,88.67
2018-10-17T20:43:37.424Z,80.47
2018-10-17T20:46:05.893Z,75.33
2018-10-17T20:48:34.404Z,83.50
2018-10-17T20:51:02.846Z,77.80
2018-10-17T20:53:31.313Z,75.03
2018-10-17T20:55:59.748Z,86.77
2018-10-17T20:58:28.176Z,102.13
2018-10-17T21:00:56.593Z,97.90
2018-10-17T21:03:25.026Z,90.40
2018-10-17T21:05:53.495Z,94.63
2018-10-17T21:08:21.985Z,93.10
2018-10-17T21:10:50.405Z,87.47
2018-10-17T21:13:18.850Z,85.27
2018-10-17T21:15:47.263Z,97.10
2018-10-17T21:18:15.742Z,89.10
2018-10-17T21:20:44.174Z,90.43
2018-10-17T21:23:12.679Z,106.27
2018-10-17T21:25:41.182Z,96.13
2018-10-17T21:28:09.749Z,101.00
2018-10-17T21:30:38.234Z,96.97
2018-10-17T21:33:07.041Z,102.23
2018-10-17T21:35:35.636Z,95.43
2018-10-17T21:38:04.818Z,100.37
2018-10-17T21:40:33.232Z,96.73
2018-10-17T21:43:01.705Z,90.93
2018-10-17T21:45:30.163Z,105.00
2018-10-17T21:47:58.601Z,99.57
2018-10-17T21:50:27.043Z,95.40
2018-10-17T21:52:55.536Z,110.53
2018-10-17T21:55:23.914Z,95.50
2018-10-17T21:57:52.925Z,98.63
2018-10-17T22:00:21.365Z,92.93
2018-10-17T22:02:49.773Z,102.77
2018-10-17T22:05:18.200Z,99.47
2018-10-17T22:07:46.664Z,91.17
2018-10-17T22:10:15.092Z,104.70
2018-10-17T22:12:43.498Z,89.60
2018-10-17T22:15:12.016Z,88.67
2018-10-17T22:17:40.530Z,97.77
2018-10-17T22:20:09.049Z,96.17
2018-10-17T22:22:37.404Z,93.73
2018-10-17T22:25:06.773Z,86.07
2018-10-17T22:27:35.244Z,105.27
2018-10-17T22:30:03.791Z,100.30
2018-10-17T22:32:32.229Z,93.93
2018-10-17T22:35:00.674Z,87.00
2018-10-17T22:37:29.114Z,87.27
2018-10-17T22:39:57.513Z,108.00
2018-10-17T22:42:25.917Z,89.40
2018-10-17T22:44:54.369Z,93.43
2018-10-17T22:47:22.792Z,92.50
2018-10-17T22:49:51.228Z,89.73
2018-10-17T22:52:19.627Z,88.63
2018-10-17T22:54:48.052Z,98.57
2018-10-17T22:57:16.560Z,81.57
2018-10-17T22:59:45.085Z,101.47
2018-10-17T23:02:13.605Z,94.97
2018-10-17T23:04:42.009Z,86.87
2018-10-17T23:07:10.425Z,85.87
2018-10-17T23:09:38.888Z,102.40
2018-10-17T23:12:07.364Z,96.73
2018-10-17T23:14:35.802Z,91.90
2018-10-17T23:17:04.299Z,92.80
2018-10-17T23:19:32.715Z,83.20
2018-10-17T23:22:01.114Z,82.23
2018-10-17T23:24:29.584Z,85.27
2018-10-17T23:26:58.005Z,83.53
2018-10-17T23:29:26.403Z,90.73
2018-10-17T23:31:54.839Z,84.30
2018-10-17T23:34:23.268Z,87.60
2018-10-17T23:36:51.664Z,86.90
2018-10-17T23:39:20.045Z,84.23
2018-10-17T23:41:48.459Z,89.80
2018-10-17T23:44:16.966Z,105.13
2018-10-17T23:46:45.357Z,90.07
2018-10-17T23:49:13.749Z,83.83
2018-10-17T23:51:42.106Z,95.50
2018-10-17T23:54:10.608Z,91.10
2018-10-17T23:56:39.020Z,98.73
2018-10-17T23:59:07.447Z,88.17
